Terminal Aerodrome Forecast
Issued by NWS

Home | Current Version | Previous Version | Text Only | Print | Product List | Glossary On
Versions: 1 2 3 4 5 6 7 8 9 10 11 12 13 14 15 16 17 18 19
000
FTUS41 KBOX 232325
TAFFMH
TAF
KFMH 232325Z 2400/2424 07007KT P6SM SCT100
     FM241000 10010G19KT P6SM -RA BKN090
     FM241200 09011G19KT P6SM -RA SCT010 OVC050
     FM241400 07013G29KT 2SM RA BR OVC008
     FM242000 05014G25KT P6SM VCSH OVC008=

USA.gov is the U.S. government's official web portal to all federal, state and local government web resources and services.